KBLI/BLI METAR and TAF weather

Enter ICAO airport designator
Station Type Date Time Source
KBLI METAR 2020/07/09 22:53 UTC NOAA

KBLI 092253Z 18007KT 10SM SCT014 BKN033 BKN075 18/13 A3002 RMK AO2 SLP171 T01780133 $


Station Type Date Time Source
KBLI Decoded METAR 2020/07/09 22:53 UTC NOAA

BELLINGHAM INTERNATIONAL AIRPORT, WA, United States (KBLI) 48-48N 122-32W 50M
Jul 09, 2020 - 06:53 PM EDT / 2020.07.09 2253 UTC
Wind: from the S (180 degrees) at 8 MPH (7 KT):0
Visibility: 10 mile(s):0
Sky conditions: mostly cloudy
Temperature: 64.0 F (17.8 C)
Dew Point: 55.9 F (13.3 C)
Relative Humidity: 74%
Pressure (altimeter): 30.02 in. Hg (1016 hPa)
ob: KBLI 092253Z 18007KT 10SM SCT014 BKN033 BKN075 18/13 A3002 RMK AO2 SLP171 T01780133
cycle: 23

Station Type Date Time Source
KBLI TAF 2020/07/09 18:30 UTC NOAA

TAF KBLI 091728Z 0918/1018 20005KT 6SM -SHRA SCT005 BKN010 OVC050
FM092200 19010KT P6SM VCSH SCT015 BKN050
FM100100 17008KT P6SM BKN045
FM101100 17010KT P6SM OVC028

Example: see airport list